sensor_id;sensor_type;location;lat;lon;timestamp;temperature;humidity
63313;DHT22;49442;45.640;13.812;2023-09-12T00:00:42;20.40;99.90
63313;DHT22;49442;45.640;13.812;2023-09-12T00:03:08;20.50;99.90
63313;DHT22;49442;45.640;13.812;2023-09-12T00:05:33;20.40;99.90
63313;DHT22;49442;45.640;13.812;2023-09-12T00:08:00;20.40;99.90
63313;DHT22;49442;45.640;13.812;2023-09-12T00:10:25;20.40;99.90
63313;DHT22;49442;45.640;13.812;2023-09-12T00:12:51;20.40;99.90
63313;DHT22;49442;45.640;13.812;2023-09-12T00:15:17;20.30;99.90
63313;DHT22;49442;45.640;13.812;2023-09-12T00:17:44;20.20;99.90
63313;DHT22;49442;45.640;13.812;2023-09-12T00:20:10;20.20;99.90
63313;DHT22;49442;45.640;13.812;2023-09-12T00:22:36;20.20;99.90
63313;DHT22;49442;45.640;13.812;2023-09-12T00:25:02;20.20;99.90
63313;DHT22;49442;45.640;13.812;2023-09-12T00:27:28;20.10;99.90
63313;DHT22;49442;45.640;13.812;2023-09-12T00:29:54;20.10;99.90
63313;DHT22;49442;45.640;13.812;2023-09-12T00:32:20;20.10;99.90
63313;DHT22;49442;45.640;13.812;2023-09-12T00:34:45;20.00;99.90
63313;DHT22;49442;45.640;13.812;2023-09-12T00:37:11;20.00;99.90
63313;DHT22;49442;45.640;13.812;2023-09-12T00:39:37;20.00;99.90
63313;DHT22;49442;45.640;13.812;2023-09-12T00:42:03;19.90;99.90
63313;DHT22;49442;45.640;13.812;2023-09-12T00:44:29;19.90;99.90
63313;DHT22;49442;45.640;13.812;2023-09-12T00:46:55;19.80;99.90
63313;DHT22;49442;45.640;13.812;2023-09-12T00:49:23;19.80;99.90
63313;DHT22;49442;45.640;13.812;2023-09-12T00:51:50;19.80;99.90
63313;DHT22;49442;45.640;13.812;2023-09-12T00:54:17;19.70;99.90
63313;DHT22;49442;45.640;13.812;2023-09-12T00:56:42;19.70;99.90
63313;DHT22;49442;45.640;13.812;2023-09-12T00:59:08;19.70;99.90
63313;DHT22;49442;45.640;13.812;2023-09-12T01:01:35;19.60;99.90
63313;DHT22;49442;45.640;13.812;2023-09-12T01:04:02;19.60;99.90
63313;DHT22;49442;45.640;13.812;2023-09-12T01:06:29;19.60;99.90
63313;DHT22;49442;45.640;13.812;2023-09-12T01:08:57;19.60;99.90
63313;DHT22;49442;45.640;13.812;2023-09-12T01:11:24;19.60;99.90
63313;DHT22;49442;45.640;13.812;2023-09-12T01:13:50;19.60;99.90
63313;DHT22;49442;45.640;13.812;2023-09-12T01:16:15;19.60;99.90
63313;DHT22;49442;45.640;13.812;2023-09-12T01:18:41;19.60;99.90
63313;DHT22;49442;45.640;13.812;2023-09-12T01:27:27;19.60;99.90
63313;DHT22;49442;45.640;13.812;2023-09-12T01:29:57;19.60;99.90
63313;DHT22;49442;45.640;13.812;2023-09-12T01:32:24;19.60;99.90
63313;DHT22;49442;45.640;13.812;2023-09-12T01:34:51;19.60;99.90
63313;DHT22;49442;45.640;13.812;2023-09-12T01:37:17;19.60;99.90
63313;DHT22;49442;45.640;13.812;2023-09-12T01:39:42;19.70;99.90
63313;DHT22;49442;45.640;13.812;2023-09-12T01:42:15;19.60;99.90
63313;DHT22;49442;45.640;13.812;2023-09-12T01:44:46;19.70;99.90
63313;DHT22;49442;45.640;13.812;2023-09-12T01:47:13;19.70;99.90
63313;DHT22;49442;45.640;13.812;2023-09-12T01:49:45;19.70;99.90
63313;DHT22;49442;45.640;13.812;2023-09-12T01:52:13;19.70;99.90
63313;DHT22;49442;45.640;13.812;2023-09-12T01:54:40;19.70;99.90
63313;DHT22;49442;45.640;13.812;2023-09-12T01:57:06;19.70;99.90
63313;DHT22;49442;45.640;13.812;2023-09-12T01:59:33;19.70;99.90
63313;DHT22;49442;45.640;13.812;2023-09-12T02:01:59;19.80;99.90
63313;DHT22;49442;45.640;13.812;2023-09-12T02:04:25;19.70;99.90
63313;DHT22;49442;45.640;13.812;2023-09-12T02:06:51;19.60;99.90
63313;DHT22;49442;45.640;13.812;2023-09-12T02:09:16;19.60;99.90
63313;DHT22;49442;45.640;13.812;2023-09-12T02:11:42;19.60;99.90
63313;DHT22;49442;45.640;13.812;2023-09-12T02:14:08;19.60;99.90
63313;DHT22;49442;45.640;13.812;2023-09-12T02:16:36;19.60;99.90
63313;DHT22;49442;45.640;13.812;2023-09-12T02:19:05;19.60;99.90
63313;DHT22;49442;45.640;13.812;2023-09-12T02:21:31;19.60;99.90
63313;DHT22;49442;45.640;13.812;2023-09-12T02:23:57;19.60;99.90
63313;DHT22;49442;45.640;13.812;2023-09-12T02:26:23;19.60;99.90
63313;DHT22;49442;45.640;13.812;2023-09-12T02:28:48;19.60;99.90
63313;DHT22;49442;45.640;13.812;2023-09-12T02:31:14;19.50;99.90
63313;DHT22;49442;45.640;13.812;2023-09-12T02:33:40;19.50;99.90
63313;DHT22;49442;45.640;13.812;2023-09-12T02:36:06;19.40;99.90
63313;DHT22;49442;45.640;13.812;2023-09-12T02:38:32;19.40;99.90
63313;DHT22;49442;45.640;13.812;2023-09-12T02:40:58;19.40;99.90
63313;DHT22;49442;45.640;13.812;2023-09-12T02:43:24;19.40;99.90
63313;DHT22;49442;45.640;13.812;2023-09-12T02:45:49;19.40;99.90
63313;DHT22;49442;45.640;13.812;2023-09-12T02:48:15;19.30;99.90
63313;DHT22;49442;45.640;13.812;2023-09-12T02:50:41;19.30;99.90
63313;DHT22;49442;45.640;13.812;2023-09-12T02:53:07;19.30;99.90
63313;DHT22;49442;45.640;13.812;2023-09-12T02:55:32;19.30;99.90
63313;DHT22;49442;45.640;13.812;2023-09-12T02:57:58;19.30;99.90
63313;DHT22;49442;45.640;13.812;2023-09-12T03:00:24;19.30;99.90
63313;DHT22;49442;45.640;13.812;2023-09-12T03:02:50;19.20;99.90
63313;DHT22;49442;45.640;13.812;2023-09-12T03:05:16;19.30;99.90
63313;DHT22;49442;45.640;13.812;2023-09-12T03:07:41;19.30;99.90
63313;DHT22;49442;45.640;13.812;2023-09-12T03:10:07;19.30;99.90
63313;DHT22;49442;45.640;13.812;2023-09-12T03:12:35;19.30;99.90
63313;DHT22;49442;45.640;13.812;2023-09-12T03:15:02;19.30;99.90
63313;DHT22;49442;45.640;13.812;2023-09-12T03:17:28;19.30;99.90
63313;DHT22;49442;45.640;13.812;2023-09-12T03:19:54;19.30;99.90
63313;DHT22;49442;45.640;13.812;2023-09-12T03:22:20;19.40;99.90
63313;DHT22;49442;45.640;13.812;2023-09-12T03:24:45;19.40;99.90
63313;DHT22;49442;45.640;13.812;2023-09-12T03:27:11;19.30;99.90
63313;DHT22;49442;45.640;13.812;2023-09-12T03:29:37;19.30;99.90
63313;DHT22;49442;45.640;13.812;2023-09-12T03:32:03;19.30;99.90
63313;DHT22;49442;45.640;13.812;2023-09-12T03:34:29;19.30;99.90
63313;DHT22;49442;45.640;13.812;2023-09-12T03:36:55;19.30;99.90
63313;DHT22;49442;45.640;13.812;2023-09-12T03:39:20;19.20;99.90
63313;DHT22;49442;45.640;13.812;2023-09-12T03:41:46;19.30;99.90
63313;DHT22;49442;45.640;13.812;2023-09-12T03:44:12;19.30;99.90
63313;DHT22;49442;45.640;13.812;2023-09-12T03:46:37;19.30;99.90
63313;DHT22;49442;45.640;13.812;2023-09-12T03:49:03;19.30;99.90
63313;DHT22;49442;45.640;13.812;2023-09-12T03:51:29;19.30;99.90
63313;DHT22;49442;45.640;13.812;2023-09-12T03:53:54;19.30;99.90
63313;DHT22;49442;45.640;13.812;2023-09-12T03:56:20;19.30;99.90
63313;DHT22;49442;45.640;13.812;2023-09-12T03:58:46;19.30;99.90
63313;DHT22;49442;45.640;13.812;2023-09-12T04:01:12;19.40;99.90
63313;DHT22;49442;45.640;13.812;2023-09-12T04:03:38;19.40;99.90
63313;DHT22;49442;45.640;13.812;2023-09-12T04:06:04;19.40;99.90
63313;DHT22;49442;45.640;13.812;2023-09-12T04:08:29;19.30;99.90
63313;DHT22;49442;45.640;13.812;2023-09-12T04:10:55;19.30;99.90
63313;DHT22;49442;45.640;13.812;2023-09-12T04:13:21;19.30;99.90
63313;DHT22;49442;45.640;13.812;2023-09-12T04:15:46;19.20;99.90
63313;DHT22;49442;45.640;13.812;2023-09-12T04:18:12;19.20;99.90
63313;DHT22;49442;45.640;13.812;2023-09-12T04:20:38;19.10;99.90
63313;DHT22;49442;45.640;13.812;2023-09-12T04:23:03;19.00;99.90
63313;DHT22;49442;45.640;13.812;2023-09-12T04:25:30;19.00;99.90
63313;DHT22;49442;45.640;13.812;2023-09-12T04:27:55;19.00;99.90
63313;DHT22;49442;45.640;13.812;2023-09-12T04:30:21;18.90;99.90
63313;DHT22;49442;45.640;13.812;2023-09-12T04:32:47;18.90;99.90
63313;DHT22;49442;45.640;13.812;2023-09-12T04:35:13;18.90;99.90
63313;DHT22;49442;45.640;13.812;2023-09-12T04:37:39;18.90;99.90
63313;DHT22;49442;45.640;13.812;2023-09-12T04:40:06;18.90;99.90
63313;DHT22;49442;45.640;13.812;2023-09-12T04:42:32;18.80;99.90
63313;DHT22;49442;45.640;13.812;2023-09-12T04:44:58;18.80;99.90
63313;DHT22;49442;45.640;13.812;2023-09-12T04:47:23;18.80;99.90
63313;DHT22;49442;45.640;13.812;2023-09-12T04:49:49;18.80;99.90
63313;DHT22;49442;45.640;13.812;2023-09-12T04:52:15;18.80;99.90
63313;DHT22;49442;45.640;13.812;2023-09-12T04:54:41;18.80;99.90
63313;DHT22;49442;45.640;13.812;2023-09-12T04:57:07;18.90;99.90
63313;DHT22;49442;45.640;13.812;2023-09-12T04:59:33;18.90;99.90
63313;DHT22;49442;45.640;13.812;2023-09-12T05:01:59;18.90;99.90
63313;DHT22;49442;45.640;13.812;2023-09-12T05:04:25;18.90;99.90
63313;DHT22;49442;45.640;13.812;2023-09-12T05:06:50;18.90;99.90
63313;DHT22;49442;45.640;13.812;2023-09-12T05:09:16;18.90;99.90
63313;DHT22;49442;45.640;13.812;2023-09-12T05:11:42;19.00;99.90
63313;DHT22;49442;45.640;13.812;2023-09-12T05:14:08;19.00;99.90
63313;DHT22;49442;45.640;13.812;2023-09-12T05:16:33;19.00;99.90
63313;DHT22;49442;45.640;13.812;2023-09-12T05:18:59;19.00;99.90
63313;DHT22;49442;45.640;13.812;2023-09-12T05:21:25;19.00;99.90
63313;DHT22;49442;45.640;13.812;2023-09-12T05:23:50;18.90;99.90
63313;DHT22;49442;45.640;13.812;2023-09-12T05:26:16;18.90;99.90
63313;DHT22;49442;45.640;13.812;2023-09-12T05:28:42;19.00;99.90
63313;DHT22;49442;45.640;13.812;2023-09-12T05:31:08;19.00;99.90
63313;DHT22;49442;45.640;13.812;2023-09-12T05:33:33;18.90;99.90
63313;DHT22;49442;45.640;13.812;2023-09-12T05:36:00;19.00;99.90
63313;DHT22;49442;45.640;13.812;2023-09-12T05:38:26;19.00;99.90
63313;DHT22;49442;45.640;13.812;2023-09-12T05:40:52;19.00;99.90
63313;DHT22;49442;45.640;13.812;2023-09-12T05:43:18;19.00;99.90
63313;DHT22;49442;45.640;13.812;2023-09-12T05:45:44;19.10;99.90
63313;DHT22;49442;45.640;13.812;2023-09-12T05:48:10;19.10;99.90
63313;DHT22;49442;45.640;13.812;2023-09-12T05:50:39;19.20;99.90
63313;DHT22;49442;45.640;13.812;2023-09-12T05:53:05;19.20;99.90
63313;DHT22;49442;45.640;13.812;2023-09-12T05:55:30;19.30;99.90
63313;DHT22;49442;45.640;13.812;2023-09-12T05:57:56;19.30;99.90
63313;DHT22;49442;45.640;13.812;2023-09-12T06:00:22;19.40;99.90
63313;DHT22;49442;45.640;13.812;2023-09-12T06:02:48;19.50;99.90
63313;DHT22;49442;45.640;13.812;2023-09-12T06:05:14;19.50;99.90
63313;DHT22;49442;45.640;13.812;2023-09-12T06:07:40;19.60;99.90
63313;DHT22;49442;45.640;13.812;2023-09-12T06:10:07;19.70;99.90
63313;DHT22;49442;45.640;13.812;2023-09-12T06:12:33;19.80;99.90
63313;DHT22;49442;45.640;13.812;2023-09-12T06:15:04;19.90;99.90
63313;DHT22;49442;45.640;13.812;2023-09-12T06:17:30;20.00;99.90
63313;DHT22;49442;45.640;13.812;2023-09-12T06:19:56;20.10;99.90
63313;DHT22;49442;45.640;13.812;2023-09-12T06:22:22;20.20;99.90
63313;DHT22;49442;45.640;13.812;2023-09-12T06:24:49;20.30;99.90
63313;DHT22;49442;45.640;13.812;2023-09-12T06:27:15;20.30;99.90
63313;DHT22;49442;45.640;13.812;2023-09-12T06:29:48;20.40;99.90
63313;DHT22;49442;45.640;13.812;2023-09-12T06:32:18;20.50;99.90
63313;DHT22;49442;45.640;13.812;2023-09-12T06:34:43;20.60;99.90
63313;DHT22;49442;45.640;13.812;2023-09-12T06:37:11;20.70;99.90
63313;DHT22;49442;45.640;13.812;2023-09-12T06:39:37;20.80;99.90
63313;DHT22;49442;45.640;13.812;2023-09-12T06:42:03;20.90;99.90
63313;DHT22;49442;45.640;13.812;2023-09-12T06:44:29;21.00;99.90
63313;DHT22;49442;45.640;13.812;2023-09-12T06:46:54;21.00;99.90
63313;DHT22;49442;45.640;13.812;2023-09-12T06:49:20;21.20;99.90
63313;DHT22;49442;45.640;13.812;2023-09-12T06:51:46;21.30;99.90
63313;DHT22;49442;45.640;13.812;2023-09-12T06:54:11;21.40;99.90
63313;DHT22;49442;45.640;13.812;2023-09-12T06:56:38;21.50;99.90
63313;DHT22;49442;45.640;13.812;2023-09-12T06:59:04;21.50;99.90
63313;DHT22;49442;45.640;13.812;2023-09-12T07:01:30;21.60;99.90
63313;DHT22;49442;45.640;13.812;2023-09-12T07:03:56;21.70;99.90
63313;DHT22;49442;45.640;13.812;2023-09-12T07:06:23;21.80;99.90
63313;DHT22;49442;45.640;13.812;2023-09-12T07:08:49;21.90;99.90
63313;DHT22;49442;45.640;13.812;2023-09-12T07:11:15;22.00;99.90
63313;DHT22;49442;45.640;13.812;2023-09-12T07:13:41;22.10;99.90
63313;DHT22;49442;45.640;13.812;2023-09-12T07:16:06;22.20;99.90
63313;DHT22;49442;45.640;13.812;2023-09-12T07:18:32;22.30;99.90
63313;DHT22;49442;45.640;13.812;2023-09-12T07:21:03;22.40;99.90
63313;DHT22;49442;45.640;13.812;2023-09-12T07:23:29;22.50;99.90
63313;DHT22;49442;45.640;13.812;2023-09-12T07:25:56;22.50;99.90
63313;DHT22;49442;45.640;13.812;2023-09-12T07:28:25;22.60;99.90
63313;DHT22;49442;45.640;13.812;2023-09-12T07:30:51;22.70;99.90
63313;DHT22;49442;45.640;13.812;2023-09-12T07:33:17;22.80;99.90
63313;DHT22;49442;45.640;13.812;2023-09-12T07:35:43;22.80;99.90
63313;DHT22;49442;45.640;13.812;2023-09-12T07:38:08;23.00;99.90
63313;DHT22;49442;45.640;13.812;2023-09-12T07:40:34;23.00;99.90
63313;DHT22;49442;45.640;13.812;2023-09-12T07:43:00;23.10;99.90
63313;DHT22;49442;45.640;13.812;2023-09-12T07:45:25;23.20;99.90
63313;DHT22;49442;45.640;13.812;2023-09-12T07:47:51;23.30;99.90
63313;DHT22;49442;45.640;13.812;2023-09-12T07:50:17;23.40;99.90
63313;DHT22;49442;45.640;13.812;2023-09-12T07:52:42;23.50;99.90
63313;DHT22;49442;45.640;13.812;2023-09-12T07:55:08;23.50;99.90
63313;DHT22;49442;45.640;13.812;2023-09-12T07:57:34;23.60;99.90
63313;DHT22;49442;45.640;13.812;2023-09-12T08:00:02;23.60;99.90
63313;DHT22;49442;45.640;13.812;2023-09-12T08:02:30;23.60;99.90
63313;DHT22;49442;45.640;13.812;2023-09-12T08:04:55;23.60;99.90
63313;DHT22;49442;45.640;13.812;2023-09-12T08:07:21;23.70;99.90
63313;DHT22;49442;45.640;13.812;2023-09-12T08:09:51;23.80;99.90
63313;DHT22;49442;45.640;13.812;2023-09-12T08:12:18;23.90;99.90
63313;DHT22;49442;45.640;13.812;2023-09-12T08:14:44;23.90;99.90
63313;DHT22;49442;45.640;13.812;2023-09-12T08:17:11;24.10;99.90
63313;DHT22;49442;45.640;13.812;2023-09-12T08:19:37;24.20;99.90
63313;DHT22;49442;45.640;13.812;2023-09-12T08:22:03;24.30;99.90
63313;DHT22;49442;45.640;13.812;2023-09-12T08:24:29;24.40;99.90
63313;DHT22;49442;45.640;13.812;2023-09-12T08:26:55;24.40;99.90
63313;DHT22;49442;45.640;13.812;2023-09-12T08:29:20;24.50;99.90
63313;DHT22;49442;45.640;13.812;2023-09-12T08:31:46;24.60;99.90
63313;DHT22;49442;45.640;13.812;2023-09-12T08:34:13;24.60;99.90
63313;DHT22;49442;45.640;13.812;2023-09-12T08:36:39;24.70;99.90
63313;DHT22;49442;45.640;13.812;2023-09-12T08:39:05;24.80;99.90
63313;DHT22;49442;45.640;13.812;2023-09-12T08:41:33;24.80;99.90
63313;DHT22;49442;45.640;13.812;2023-09-12T08:44:01;24.90;99.90
63313;DHT22;49442;45.640;13.812;2023-09-12T08:46:27;24.90;99.90
63313;DHT22;49442;45.640;13.812;2023-09-12T08:48:55;25.00;99.90
63313;DHT22;49442;45.640;13.812;2023-09-12T08:51:22;25.10;99.90
63313;DHT22;49442;45.640;13.812;2023-09-12T08:53:49;25.10;99.90
63313;DHT22;49442;45.640;13.812;2023-09-12T08:56:15;25.00;99.90
63313;DHT22;49442;45.640;13.812;2023-09-12T08:58:41;25.10;99.90
63313;DHT22;49442;45.640;13.812;2023-09-12T09:01:09;25.20;99.90
63313;DHT22;49442;45.640;13.812;2023-09-12T09:03:37;25.30;99.90
63313;DHT22;49442;45.640;13.812;2023-09-12T09:06:04;25.40;99.90
63313;DHT22;49442;45.640;13.812;2023-09-12T09:08:31;25.50;99.90
63313;DHT22;49442;45.640;13.812;2023-09-12T09:10:59;25.60;99.90
63313;DHT22;49442;45.640;13.812;2023-09-12T09:13:27;25.70;99.90
63313;DHT22;49442;45.640;13.812;2023-09-12T09:16:13;25.70;99.90
63313;DHT22;49442;45.640;13.812;2023-09-12T09:19:00;25.80;99.90
63313;DHT22;49442;45.640;13.812;2023-09-12T09:21:28;25.80;99.90
63313;DHT22;49442;45.640;13.812;2023-09-12T09:23:56;25.90;99.90
63313;DHT22;49442;45.640;13.812;2023-09-12T09:26:21;25.90;99.90
63313;DHT22;49442;45.640;13.812;2023-09-12T09:29:08;25.90;99.90
63313;DHT22;49442;45.640;13.812;2023-09-12T09:31:34;25.80;99.90
63313;DHT22;49442;45.640;13.812;2023-09-12T09:34:00;25.90;99.90
63313;DHT22;49442;45.640;13.812;2023-09-12T09:36:27;25.80;99.90
63313;DHT22;49442;45.640;13.812;2023-09-12T09:38:54;25.90;99.90
63313;DHT22;49442;45.640;13.812;2023-09-12T09:41:20;26.00;99.90
63313;DHT22;49442;45.640;13.812;2023-09-12T09:43:52;26.00;99.90
63313;DHT22;49442;45.640;13.812;2023-09-12T09:46:18;26.10;99.90
63313;DHT22;49442;45.640;13.812;2023-09-12T09:48:51;26.00;99.90
63313;DHT22;49442;45.640;13.812;2023-09-12T09:51:17;26.00;99.90
63313;DHT22;49442;45.640;13.812;2023-09-12T09:53:43;26.10;99.90
63313;DHT22;49442;45.640;13.812;2023-09-12T09:56:15;26.00;99.90
63313;DHT22;49442;45.640;13.812;2023-09-12T09:58:47;25.90;99.90
63313;DHT22;49442;45.640;13.812;2023-09-12T10:01:20;26.00;99.90
63313;DHT22;49442;45.640;13.812;2023-09-12T10:03:50;26.00;99.90
63313;DHT22;49442;45.640;13.812;2023-09-12T10:06:17;26.00;99.90
63313;DHT22;49442;45.640;13.812;2023-09-12T10:08:45;26.10;99.90
63313;DHT22;49442;45.640;13.812;2023-09-12T10:11:15;26.10;99.90
63313;DHT22;49442;45.640;13.812;2023-09-12T10:14:04;26.10;99.90
63313;DHT22;49442;45.640;13.812;2023-09-12T10:16:32;26.20;99.90
63313;DHT22;49442;45.640;13.812;2023-09-12T10:22:06;26.10;99.90
63313;DHT22;49442;45.640;13.812;2023-09-12T10:24:35;26.10;99.90
63313;DHT22;49442;45.640;13.812;2023-09-12T10:27:02;26.10;99.90
63313;DHT22;49442;45.640;13.812;2023-09-12T10:29:29;26.10;99.90
63313;DHT22;49442;45.640;13.812;2023-09-12T10:31:56;26.20;99.90
63313;DHT22;49442;45.640;13.812;2023-09-12T10:34:25;26.20;99.90
63313;DHT22;49442;45.640;13.812;2023-09-12T10:36:52;26.30;99.90
63313;DHT22;49442;45.640;13.812;2023-09-12T10:39:20;26.40;99.90
63313;DHT22;49442;45.640;13.812;2023-09-12T10:41:49;26.40;99.90
63313;DHT22;49442;45.640;13.812;2023-09-12T10:44:17;26.30;99.90
63313;DHT22;49442;45.640;13.812;2023-09-12T10:46:45;26.40;99.90
63313;DHT22;49442;45.640;13.812;2023-09-12T10:49:13;26.50;99.90
63313;DHT22;49442;45.640;13.812;2023-09-12T10:51:44;26.50;99.90
63313;DHT22;49442;45.640;13.812;2023-09-12T10:54:14;26.60;99.90
63313;DHT22;49442;45.640;13.812;2023-09-12T10:56:40;26.60;99.90
63313;DHT22;49442;45.640;13.812;2023-09-12T11:01:36;26.60;99.90
63313;DHT22;49442;45.640;13.812;2023-09-12T11:06:53;26.70;99.90
63313;DHT22;49442;45.640;13.812;2023-09-12T11:09:25;26.70;99.90
63313;DHT22;49442;45.640;13.812;2023-09-12T11:11:57;26.80;99.90
63313;DHT22;49442;45.640;13.812;2023-09-12T11:14:23;26.80;99.90
63313;DHT22;49442;45.640;13.812;2023-09-12T11:19:50;26.80;99.90
63313;DHT22;49442;45.640;13.812;2023-09-12T11:22:29;26.80;99.90
63313;DHT22;49442;45.640;13.812;2023-09-12T11:25:03;26.70;99.90
63313;DHT22;49442;45.640;13.812;2023-09-12T11:30:24;26.40;99.90
63313;DHT22;49442;45.640;13.812;2023-09-12T11:32:51;26.20;99.90
63313;DHT22;49442;45.640;13.812;2023-09-12T11:35:23;26.10;99.90
63313;DHT22;49442;45.640;13.812;2023-09-12T11:37:50;26.00;99.90
63313;DHT22;49442;45.640;13.812;2023-09-12T11:40:19;26.00;99.90
63313;DHT22;49442;45.640;13.812;2023-09-12T11:42:48;26.10;99.90
63313;DHT22;49442;45.640;13.812;2023-09-12T11:45:17;26.10;99.90
63313;DHT22;49442;45.640;13.812;2023-09-12T11:47:45;26.30;99.90
63313;DHT22;49442;45.640;13.812;2023-09-12T11:50:35;26.30;99.90
63313;DHT22;49442;45.640;13.812;2023-09-12T11:53:06;26.50;99.90
63313;DHT22;49442;45.640;13.812;2023-09-12T11:55:53;26.60;99.90
63313;DHT22;49442;45.640;13.812;2023-09-12T11:58:20;26.70;99.90
63313;DHT22;49442;45.640;13.812;2023-09-12T12:00:51;26.60;99.90
63313;DHT22;49442;45.640;13.812;2023-09-12T12:03:18;26.60;99.90
63313;DHT22;49442;45.640;13.812;2023-09-12T12:05:44;26.70;99.90
63313;DHT22;49442;45.640;13.812;2023-09-12T12:08:11;26.80;99.90
63313;DHT22;49442;45.640;13.812;2023-09-12T12:10:37;26.80;99.90
63313;DHT22;49442;45.640;13.812;2023-09-12T12:13:05;26.80;99.90
63313;DHT22;49442;45.640;13.812;2023-09-12T12:15:31;26.80;99.90
63313;DHT22;49442;45.640;13.812;2023-09-12T12:17:58;26.80;99.90
63313;DHT22;49442;45.640;13.812;2023-09-12T12:20:24;26.80;99.90
63313;DHT22;49442;45.640;13.812;2023-09-12T12:22:49;26.80;99.90
63313;DHT22;49442;45.640;13.812;2023-09-12T12:25:18;26.80;99.90
63313;DHT22;49442;45.640;13.812;2023-09-12T12:27:44;26.80;99.90
63313;DHT22;49442;45.640;13.812;2023-09-12T12:30:12;26.80;99.90
63313;DHT22;49442;45.640;13.812;2023-09-12T12:32:45;26.70;99.90
63313;DHT22;49442;45.640;13.812;2023-09-12T12:35:19;26.70;99.90
63313;DHT22;49442;45.640;13.812;2023-09-12T12:37:45;26.50;99.90
63313;DHT22;49442;45.640;13.812;2023-09-12T12:40:14;26.50;99.90
63313;DHT22;49442;45.640;13.812;2023-09-12T12:42:41;26.50;99.90
63313;DHT22;49442;45.640;13.812;2023-09-12T12:47:38;26.50;99.90
63313;DHT22;49442;45.640;13.812;2023-09-12T12:50:11;26.50;99.90
63313;DHT22;49442;45.640;13.812;2023-09-12T12:52:38;26.50;99.90
63313;DHT22;49442;45.640;13.812;2023-09-12T12:55:05;26.50;99.90
63313;DHT22;49442;45.640;13.812;2023-09-12T12:57:31;26.50;99.90
63313;DHT22;49442;45.640;13.812;2023-09-12T12:59:58;26.40;99.90
63313;DHT22;49442;45.640;13.812;2023-09-12T13:02:24;26.50;99.90
63313;DHT22;49442;45.640;13.812;2023-09-12T13:04:49;26.50;99.90
63313;DHT22;49442;45.640;13.812;2023-09-12T13:07:15;26.50;99.90
63313;DHT22;49442;45.640;13.812;2023-09-12T13:09:41;26.50;99.90
63313;DHT22;49442;45.640;13.812;2023-09-12T13:12:07;26.50;99.90
63313;DHT22;49442;45.640;13.812;2023-09-12T13:14:34;26.50;99.90
63313;DHT22;49442;45.640;13.812;2023-09-12T13:17:00;26.50;99.90
63313;DHT22;49442;45.640;13.812;2023-09-12T13:19:26;26.50;99.90
63313;DHT22;49442;45.640;13.812;2023-09-12T13:21:52;26.50;99.90
63313;DHT22;49442;45.640;13.812;2023-09-12T13:24:18;26.40;99.90
63313;DHT22;49442;45.640;13.812;2023-09-12T13:26:44;26.40;99.90
63313;DHT22;49442;45.640;13.812;2023-09-12T13:29:09;26.50;99.90
63313;DHT22;49442;45.640;13.812;2023-09-12T13:31:36;26.50;99.90
63313;DHT22;49442;45.640;13.812;2023-09-12T13:34:01;26.50;99.90
63313;DHT22;49442;45.640;13.812;2023-09-12T13:36:28;26.50;99.90
63313;DHT22;49442;45.640;13.812;2023-09-12T13:38:54;26.50;99.90
63313;DHT22;49442;45.640;13.812;2023-09-12T13:41:19;26.50;99.90
63313;DHT22;49442;45.640;13.812;2023-09-12T13:43:47;26.50;99.90
63313;DHT22;49442;45.640;13.812;2023-09-12T13:46:13;26.50;99.90
63313;DHT22;49442;45.640;13.812;2023-09-12T13:48:39;26.50;99.90
63313;DHT22;49442;45.640;13.812;2023-09-12T13:51:05;26.50;99.90
63313;DHT22;49442;45.640;13.812;2023-09-12T13:53:31;26.50;99.90
63313;DHT22;49442;45.640;13.812;2023-09-12T13:55:57;26.50;99.90
63313;DHT22;49442;45.640;13.812;2023-09-12T13:58:24;26.60;99.90
63313;DHT22;49442;45.640;13.812;2023-09-12T14:00:49;26.50;99.90
63313;DHT22;49442;45.640;13.812;2023-09-12T14:03:16;26.50;99.90
63313;DHT22;49442;45.640;13.812;2023-09-12T14:05:42;26.50;99.90
63313;DHT22;49442;45.640;13.812;2023-09-12T14:08:07;26.40;99.90
63313;DHT22;49442;45.640;13.812;2023-09-12T14:10:33;26.30;99.90
63313;DHT22;49442;45.640;13.812;2023-09-12T14:12:59;26.30;99.90
63313;DHT22;49442;45.640;13.812;2023-09-12T14:15:24;26.30;99.90
63313;DHT22;49442;45.640;13.812;2023-09-12T14:17:51;26.20;99.90
63313;DHT22;49442;45.640;13.812;2023-09-12T14:20:17;26.20;99.90
63313;DHT22;49442;45.640;13.812;2023-09-12T14:22:44;26.10;99.90
63313;DHT22;49442;45.640;13.812;2023-09-12T14:25:10;26.10;99.90
63313;DHT22;49442;45.640;13.812;2023-09-12T14:27:41;26.10;99.90
63313;DHT22;49442;45.640;13.812;2023-09-12T14:30:08;26.10;99.90
63313;DHT22;49442;45.640;13.812;2023-09-12T14:32:34;26.10;99.90
63313;DHT22;49442;45.640;13.812;2023-09-12T14:34:59;26.00;99.90
63313;DHT22;49442;45.640;13.812;2023-09-12T14:37:25;26.00;99.90
63313;DHT22;49442;45.640;13.812;2023-09-12T14:39:53;26.00;99.90
63313;DHT22;49442;45.640;13.812;2023-09-12T14:42:20;26.00;99.90
63313;DHT22;49442;45.640;13.812;2023-09-12T14:44:46;26.10;99.90
63313;DHT22;49442;45.640;13.812;2023-09-12T14:47:12;26.10;99.90
63313;DHT22;49442;45.640;13.812;2023-09-12T14:49:37;26.20;99.90
63313;DHT22;49442;45.640;13.812;2023-09-12T14:52:03;26.20;99.90
63313;DHT22;49442;45.640;13.812;2023-09-12T14:54:29;26.20;99.90
63313;DHT22;49442;45.640;13.812;2023-09-12T14:56:55;26.20;99.90
63313;DHT22;49442;45.640;13.812;2023-09-12T14:59:20;26.20;99.90
63313;DHT22;49442;45.640;13.812;2023-09-12T15:01:46;26.10;99.90
63313;DHT22;49442;45.640;13.812;2023-09-12T15:04:12;26.10;99.90
63313;DHT22;49442;45.640;13.812;2023-09-12T15:06:38;26.10;99.90
63313;DHT22;49442;45.640;13.812;2023-09-12T15:09:04;26.10;99.90
63313;DHT22;49442;45.640;13.812;2023-09-12T15:11:30;26.10;99.90
63313;DHT22;49442;45.640;13.812;2023-09-12T15:13:57;26.10;99.90
63313;DHT22;49442;45.640;13.812;2023-09-12T15:16:23;26.10;99.90
63313;DHT22;49442;45.640;13.812;2023-09-12T15:18:51;26.00;99.90
63313;DHT22;49442;45.640;13.812;2023-09-12T15:21:17;26.00;99.90
63313;DHT22;49442;45.640;13.812;2023-09-12T15:23:43;25.90;99.90
63313;DHT22;49442;45.640;13.812;2023-09-12T15:26:08;25.80;99.90
63313;DHT22;49442;45.640;13.812;2023-09-12T15:28:34;25.80;99.90
63313;DHT22;49442;45.640;13.812;2023-09-12T15:31:00;25.80;99.90
63313;DHT22;49442;45.640;13.812;2023-09-12T15:33:28;25.70;99.90
63313;DHT22;49442;45.640;13.812;2023-09-12T15:35:55;25.60;99.90